sensor_id;sensor_type;location;lat;lon;timestamp;P1;durP1;ratioP1;P2;durP2;ratioP2
20154;SDS011;10238;49.556;10.956;2022-10-17T00:02:12;3.72;;;3.33;;
20154;SDS011;10238;49.556;10.956;2022-10-17T00:04:59;5.55;;;4.32;;
20154;SDS011;10238;49.556;10.956;2022-10-17T00:07:47;12.63;;;5.13;;
20154;SDS011;10238;49.556;10.956;2022-10-17T00:10:34;4.25;;;3.63;;
20154;SDS011;10238;49.556;10.956;2022-10-17T00:13:23;7.60;;;3.75;;
20154;SDS011;10238;49.556;10.956;2022-10-17T00:16:11;7.30;;;3.85;;
20154;SDS011;10238;49.556;10.956;2022-10-17T00:19:01;5.20;;;3.05;;
20154;SDS011;10238;49.556;10.956;2022-10-17T00:21:50;3.42;;;3.13;;
20154;SDS011;10238;49.556;10.956;2022-10-17T00:24:38;5.25;;;3.50;;
20154;SDS011;10238;49.556;10.956;2022-10-17T00:27:25;3.85;;;3.30;;
20154;SDS011;10238;49.556;10.956;2022-10-17T00:30:14;5.32;;;3.13;;
20154;SDS011;10238;49.556;10.956;2022-10-17T00:33:04;4.95;;;3.17;;
20154;SDS011;10238;49.556;10.956;2022-10-17T00:36:02;5.28;;;3.45;;
20154;SDS011;10238;49.556;10.956;2022-10-17T00:38:53;4.43;;;3.17;;
20154;SDS011;10238;49.556;10.956;2022-10-17T00:41:43;5.22;;;3.25;;
20154;SDS011;10238;49.556;10.956;2022-10-17T00:48:06;4.78;;;3.30;;
20154;SDS011;10238;49.556;10.956;2022-10-17T00:50:57;6.07;;;3.40;;
20154;SDS011;10238;49.556;10.956;2022-10-17T00:53:47;9.75;;;3.20;;
20154;SDS011;10238;49.556;10.956;2022-10-17T00:56:36;5.88;;;2.90;;
20154;SDS011;10238;49.556;10.956;2022-10-17T00:59:24;5.55;;;3.08;;
20154;SDS011;10238;49.556;10.956;2022-10-17T01:02:15;4.07;;;3.40;;
20154;SDS011;10238;49.556;10.956;2022-10-17T01:05:05;5.38;;;3.30;;
20154;SDS011;10238;49.556;10.956;2022-10-17T01:07:55;7.93;;;3.33;;
20154;SDS011;10238;49.556;10.956;2022-10-17T01:10:47;5.00;;;2.97;;
20154;SDS011;10238;49.556;10.956;2022-10-17T01:13:51;2.90;;;2.67;;
20154;SDS011;10238;49.556;10.956;2022-10-17T01:16:48;3.13;;;2.80;;
20154;SDS011;10238;49.556;10.956;2022-10-17T01:19:54;5.30;;;3.33;;
20154;SDS011;10238;49.556;10.956;2022-10-17T01:23:17;7.68;;;2.95;;
20154;SDS011;10238;49.556;10.956;2022-10-17T01:26:30;3.42;;;2.85;;
20154;SDS011;10238;49.556;10.956;2022-10-17T01:29:44;2.92;;;2.63;;
20154;SDS011;10238;49.556;10.956;2022-10-17T01:32:46;3.35;;;2.75;;
20154;SDS011;10238;49.556;10.956;2022-10-17T01:35:41;3.55;;;2.53;;
20154;SDS011;10238;49.556;10.956;2022-10-17T01:38:43;3.53;;;2.90;;
20154;SDS011;10238;49.556;10.956;2022-10-17T01:41:37;4.30;;;2.90;;
20154;SDS011;10238;49.556;10.956;2022-10-17T01:44:33;3.03;;;2.72;;
20154;SDS011;10238;49.556;10.956;2022-10-17T01:47:31;4.72;;;2.83;;
20154;SDS011;10238;49.556;10.956;2022-10-17T01:50:22;4.53;;;4.10;;
20154;SDS011;10238;49.556;10.956;2022-10-17T01:53:18;2.88;;;2.63;;
20154;SDS011;10238;49.556;10.956;2022-10-17T01:56:18;3.85;;;3.08;;
20154;SDS011;10238;49.556;10.956;2022-10-17T01:59:11;3.92;;;2.67;;
20154;SDS011;10238;49.556;10.956;2022-10-17T02:02:05;6.68;;;2.90;;
20154;SDS011;10238;49.556;10.956;2022-10-17T02:04:55;3.50;;;2.88;;
20154;SDS011;10238;49.556;10.956;2022-10-17T02:07:45;4.57;;;3.40;;
20154;SDS011;10238;49.556;10.956;2022-10-17T02:10:35;5.70;;;3.10;;
20154;SDS011;10238;49.556;10.956;2022-10-17T02:13:35;3.58;;;2.95;;
20154;SDS011;10238;49.556;10.956;2022-10-17T02:16:41;6.38;;;3.42;;
20154;SDS011;10238;49.556;10.956;2022-10-17T02:19:49;5.63;;;3.97;;
20154;SDS011;10238;49.556;10.956;2022-10-17T02:22:54;5.13;;;3.35;;
20154;SDS011;10238;49.556;10.956;2022-10-17T02:25:56;9.10;;;3.53;;
20154;SDS011;10238;49.556;10.956;2022-10-17T02:28:54;5.55;;;3.10;;
20154;SDS011;10238;49.556;10.956;2022-10-17T02:31:55;4.35;;;3.35;;
20154;SDS011;10238;49.556;10.956;2022-10-17T02:34:49;4.75;;;3.75;;
20154;SDS011;10238;49.556;10.956;2022-10-17T02:37:43;6.88;;;3.65;;
20154;SDS011;10238;49.556;10.956;2022-10-17T02:40:34;4.63;;;2.78;;
20154;SDS011;10238;49.556;10.956;2022-10-17T02:43:25;4.95;;;3.22;;
20154;SDS011;10238;49.556;10.956;2022-10-17T02:46:15;4.88;;;3.45;;
20154;SDS011;10238;49.556;10.956;2022-10-17T02:49:07;5.88;;;3.35;;
20154;SDS011;10238;49.556;10.956;2022-10-17T02:52:05;3.20;;;2.90;;
20154;SDS011;10238;49.556;10.956;2022-10-17T02:55:00;4.40;;;3.47;;
20154;SDS011;10238;49.556;10.956;2022-10-17T02:57:58;4.60;;;3.00;;
20154;SDS011;10238;49.556;10.956;2022-10-17T03:00:53;3.58;;;3.22;;
20154;SDS011;10238;49.556;10.956;2022-10-17T03:03:41;4.05;;;2.95;;
20154;SDS011;10238;49.556;10.956;2022-10-17T03:06:29;2.95;;;2.50;;
20154;SDS011;10238;49.556;10.956;2022-10-17T03:09:16;7.18;;;4.10;;
20154;SDS011;10238;49.556;10.956;2022-10-17T03:12:04;4.60;;;3.65;;
20154;SDS011;10238;49.556;10.956;2022-10-17T03:14:53;4.88;;;3.17;;
20154;SDS011;10238;49.556;10.956;2022-10-17T03:17:41;5.28;;;3.25;;
20154;SDS011;10238;49.556;10.956;2022-10-17T03:20:30;6.07;;;4.03;;
20154;SDS011;10238;49.556;10.956;2022-10-17T03:23:18;5.50;;;3.63;;
20154;SDS011;10238;49.556;10.956;2022-10-17T03:26:06;3.85;;;3.22;;
20154;SDS011;10238;49.556;10.956;2022-10-17T03:28:54;5.97;;;3.38;;
20154;SDS011;10238;49.556;10.956;2022-10-17T03:31:43;6.25;;;3.72;;
20154;SDS011;10238;49.556;10.956;2022-10-17T03:34:31;5.32;;;3.15;;
20154;SDS011;10238;49.556;10.956;2022-10-17T03:37:19;5.18;;;3.40;;
20154;SDS011;10238;49.556;10.956;2022-10-17T03:40:07;4.55;;;3.03;;
20154;SDS011;10238;49.556;10.956;2022-10-17T03:42:56;3.33;;;3.03;;
20154;SDS011;10238;49.556;10.956;2022-10-17T03:45:43;3.35;;;2.80;;
20154;SDS011;10238;49.556;10.956;2022-10-17T03:48:32;4.93;;;3.67;;
20154;SDS011;10238;49.556;10.956;2022-10-17T03:51:19;4.35;;;3.40;;
20154;SDS011;10238;49.556;10.956;2022-10-17T03:54:07;4.07;;;3.28;;
20154;SDS011;10238;49.556;10.956;2022-10-17T03:56:55;4.30;;;3.00;;
20154;SDS011;10238;49.556;10.956;2022-10-17T03:59:43;4.30;;;3.20;;
20154;SDS011;10238;49.556;10.956;2022-10-17T04:02:30;4.93;;;3.47;;
20154;SDS011;10238;49.556;10.956;2022-10-17T04:05:21;3.55;;;3.17;;
20154;SDS011;10238;49.556;10.956;2022-10-17T04:08:08;5.78;;;3.45;;
20154;SDS011;10238;49.556;10.956;2022-10-17T04:10:57;3.83;;;3.08;;
20154;SDS011;10238;49.556;10.956;2022-10-17T04:13:45;4.85;;;3.22;;
20154;SDS011;10238;49.556;10.956;2022-10-17T04:16:34;4.18;;;3.08;;
20154;SDS011;10238;49.556;10.956;2022-10-17T04:19:21;4.97;;;3.45;;
20154;SDS011;10238;49.556;10.956;2022-10-17T04:22:12;6.88;;;3.58;;
20154;SDS011;10238;49.556;10.956;2022-10-17T04:25:00;3.65;;;3.17;;
20154;SDS011;10238;49.556;10.956;2022-10-17T04:27:47;3.95;;;3.45;;
20154;SDS011;10238;49.556;10.956;2022-10-17T04:30:35;3.47;;;2.90;;
20154;SDS011;10238;49.556;10.956;2022-10-17T04:33:28;4.50;;;3.05;;
20154;SDS011;10238;49.556;10.956;2022-10-17T04:36:17;5.57;;;3.20;;
20154;SDS011;10238;49.556;10.956;2022-10-17T04:39:09;6.57;;;3.35;;
20154;SDS011;10238;49.556;10.956;2022-10-17T04:42:02;4.20;;;3.30;;
20154;SDS011;10238;49.556;10.956;2022-10-17T04:44:50;6.05;;;3.22;;
20154;SDS011;10238;49.556;10.956;2022-10-17T04:47:37;4.20;;;3.47;;
20154;SDS011;10238;49.556;10.956;2022-10-17T04:50:25;4.65;;;3.25;;
20154;SDS011;10238;49.556;10.956;2022-10-17T04:53:12;3.67;;;2.85;;
20154;SDS011;10238;49.556;10.956;2022-10-17T04:56:06;6.90;;;2.92;;
20154;SDS011;10238;49.556;10.956;2022-10-17T04:58:55;4.05;;;2.90;;
20154;SDS011;10238;49.556;10.956;2022-10-17T05:01:45;3.13;;;2.83;;
20154;SDS011;10238;49.556;10.956;2022-10-17T05:04:34;4.18;;;3.65;;
20154;SDS011;10238;49.556;10.956;2022-10-17T05:07:22;5.20;;;3.55;;
20154;SDS011;10238;49.556;10.956;2022-10-17T05:10:12;3.50;;;3.20;;
20154;SDS011;10238;49.556;10.956;2022-10-17T05:13:01;8.73;;;3.35;;
20154;SDS011;10238;49.556;10.956;2022-10-17T05:15:49;3.90;;;3.25;;
20154;SDS011;10238;49.556;10.956;2022-10-17T05:18:37;5.72;;;3.10;;
20154;SDS011;10238;49.556;10.956;2022-10-17T05:21:25;3.42;;;2.90;;
20154;SDS011;10238;49.556;10.956;2022-10-17T05:24:15;3.58;;;2.88;;
20154;SDS011;10238;49.556;10.956;2022-10-17T05:27:03;3.80;;;2.85;;
20154;SDS011;10238;49.556;10.956;2022-10-17T05:29:52;2.90;;;2.60;;
20154;SDS011;10238;49.556;10.956;2022-10-17T05:32:40;3.85;;;2.63;;
20154;SDS011;10238;49.556;10.956;2022-10-17T05:35:27;2.92;;;2.35;;
20154;SDS011;10238;49.556;10.956;2022-10-17T05:38:18;4.03;;;2.53;;
20154;SDS011;10238;49.556;10.956;2022-10-17T05:41:06;3.20;;;2.60;;
20154;SDS011;10238;49.556;10.956;2022-10-17T05:43:53;6.20;;;2.83;;
20154;SDS011;10238;49.556;10.956;2022-10-17T05:46:48;3.08;;;2.20;;
20154;SDS011;10238;49.556;10.956;2022-10-17T05:49:36;3.25;;;2.65;;
20154;SDS011;10238;49.556;10.956;2022-10-17T05:52:34;3.63;;;2.50;;
20154;SDS011;10238;49.556;10.956;2022-10-17T05:55:22;3.78;;;2.58;;
20154;SDS011;10238;49.556;10.956;2022-10-17T05:58:10;4.88;;;2.40;;
20154;SDS011;10238;49.556;10.956;2022-10-17T06:01:07;3.45;;;2.85;;
20154;SDS011;10238;49.556;10.956;2022-10-17T06:03:59;2.95;;;2.40;;
20154;SDS011;10238;49.556;10.956;2022-10-17T06:06:46;4.43;;;2.60;;
20154;SDS011;10238;49.556;10.956;2022-10-17T06:09:34;4.10;;;2.70;;
20154;SDS011;10238;49.556;10.956;2022-10-17T06:12:21;2.53;;;2.28;;
20154;SDS011;10238;49.556;10.956;2022-10-17T06:15:09;3.10;;;2.80;;
20154;SDS011;10238;49.556;10.956;2022-10-17T06:17:59;4.25;;;3.13;;
20154;SDS011;10238;49.556;10.956;2022-10-17T06:20:48;7.93;;;3.42;;
20154;SDS011;10238;49.556;10.956;2022-10-17T06:23:36;5.55;;;3.38;;
20154;SDS011;10238;49.556;10.956;2022-10-17T06:26:24;3.53;;;2.90;;
20154;SDS011;10238;49.556;10.956;2022-10-17T06:29:14;2.70;;;2.50;;
20154;SDS011;10238;49.556;10.956;2022-10-17T06:32:01;5.68;;;3.20;;
20154;SDS011;10238;49.556;10.956;2022-10-17T06:34:58;5.10;;;3.90;;
20154;SDS011;10238;49.556;10.956;2022-10-17T06:37:47;6.22;;;4.45;;
20154;SDS011;10238;49.556;10.956;2022-10-17T06:40:35;8.65;;;5.07;;
20154;SDS011;10238;49.556;10.956;2022-10-17T06:43:22;9.80;;;5.00;;
20154;SDS011;10238;49.556;10.956;2022-10-17T06:46:13;5.07;;;3.60;;
20154;SDS011;10238;49.556;10.956;2022-10-17T06:49:04;5.70;;;4.35;;
20154;SDS011;10238;49.556;10.956;2022-10-17T06:51:52;7.68;;;4.82;;
20154;SDS011;10238;49.556;10.956;2022-10-17T06:54:41;11.23;;;5.80;;
20154;SDS011;10238;49.556;10.956;2022-10-17T06:57:28;9.48;;;5.32;;
20154;SDS011;10238;49.556;10.956;2022-10-17T07:00:17;8.77;;;5.30;;
20154;SDS011;10238;49.556;10.956;2022-10-17T07:03:05;9.70;;;5.18;;
20154;SDS011;10238;49.556;10.956;2022-10-17T07:05:52;6.60;;;5.05;;
20154;SDS011;10238;49.556;10.956;2022-10-17T07:08:44;9.55;;;5.25;;
20154;SDS011;10238;49.556;10.956;2022-10-17T07:11:33;5.78;;;5.03;;
20154;SDS011;10238;49.556;10.956;2022-10-17T07:14:20;7.47;;;4.85;;
20154;SDS011;10238;49.556;10.956;2022-10-17T07:17:08;12.65;;;5.50;;
20154;SDS011;10238;49.556;10.956;2022-10-17T07:19:57;9.50;;;4.85;;
20154;SDS011;10238;49.556;10.956;2022-10-17T07:22:45;12.00;;;5.43;;
20154;SDS011;10238;49.556;10.956;2022-10-17T07:25:32;6.97;;;5.15;;
20154;SDS011;10238;49.556;10.956;2022-10-17T07:28:26;9.27;;;5.43;;
20154;SDS011;10238;49.556;10.956;2022-10-17T07:31:15;8.60;;;5.93;;
20154;SDS011;10238;49.556;10.956;2022-10-17T07:34:04;7.18;;;5.53;;
20154;SDS011;10238;49.556;10.956;2022-10-17T07:36:52;8.40;;;4.75;;
20154;SDS011;10238;49.556;10.956;2022-10-17T07:39:40;8.10;;;5.25;;
20154;SDS011;10238;49.556;10.956;2022-10-17T07:42:30;8.93;;;5.45;;
20154;SDS011;10238;49.556;10.956;2022-10-17T07:45:20;10.20;;;5.13;;
20154;SDS011;10238;49.556;10.956;2022-10-17T07:48:11;9.80;;;5.38;;
20154;SDS011;10238;49.556;10.956;2022-10-17T07:51:00;6.50;;;5.53;;
20154;SDS011;10238;49.556;10.956;2022-10-17T07:53:49;11.15;;;5.15;;
20154;SDS011;10238;49.556;10.956;2022-10-17T07:56:37;8.45;;;4.90;;
20154;SDS011;10238;49.556;10.956;2022-10-17T07:59:25;8.18;;;5.78;;
20154;SDS011;10238;49.556;10.956;2022-10-17T08:02:17;10.38;;;5.38;;
20154;SDS011;10238;49.556;10.956;2022-10-17T08:05:12;8.90;;;5.55;;
20154;SDS011;10238;49.556;10.956;2022-10-17T08:08:00;9.65;;;4.70;;
20154;SDS011;10238;49.556;10.956;2022-10-17T08:10:48;10.00;;;5.38;;
20154;SDS011;10238;49.556;10.956;2022-10-17T08:13:36;7.13;;;4.68;;
20154;SDS011;10238;49.556;10.956;2022-10-17T08:16:28;11.33;;;5.27;;
20154;SDS011;10238;49.556;10.956;2022-10-17T08:19:24;7.03;;;4.93;;
20154;SDS011;10238;49.556;10.956;2022-10-17T08:22:12;9.63;;;5.13;;
20154;SDS011;10238;49.556;10.956;2022-10-17T08:25:00;8.38;;;4.93;;
20154;SDS011;10238;49.556;10.956;2022-10-17T08:27:50;6.85;;;4.53;;
20154;SDS011;10238;49.556;10.956;2022-10-17T08:30:39;9.77;;;5.03;;
20154;SDS011;10238;49.556;10.956;2022-10-17T08:33:29;7.93;;;4.82;;
20154;SDS011;10238;49.556;10.956;2022-10-17T08:36:19;13.27;;;6.40;;
20154;SDS011;10238;49.556;10.956;2022-10-17T08:39:07;7.53;;;5.40;;
20154;SDS011;10238;49.556;10.956;2022-10-17T08:42:15;6.65;;;5.20;;
20154;SDS011;10238;49.556;10.956;2022-10-17T08:45:17;12.93;;;5.70;;
20154;SDS011;10238;49.556;10.956;2022-10-17T08:48:14;6.95;;;5.15;;
20154;SDS011;10238;49.556;10.956;2022-10-17T08:51:08;10.43;;;5.55;;
20154;SDS011;10238;49.556;10.956;2022-10-17T08:54:04;9.60;;;5.38;;
20154;SDS011;10238;49.556;10.956;2022-10-17T08:57:10;6.20;;;4.95;;
20154;SDS011;10238;49.556;10.956;2022-10-17T09:00:00;10.75;;;5.70;;
20154;SDS011;10238;49.556;10.956;2022-10-17T09:02:56;8.98;;;5.63;;
20154;SDS011;10238;49.556;10.956;2022-10-17T09:06:01;11.05;;;6.25;;
20154;SDS011;10238;49.556;10.956;2022-10-17T09:09:05;6.32;;;5.43;;
20154;SDS011;10238;49.556;10.956;2022-10-17T09:12:10;8.55;;;4.70;;
20154;SDS011;10238;49.556;10.956;2022-10-17T09:18:30;11.00;;;6.30;;
20154;SDS011;10238;49.556;10.956;2022-10-17T09:21:32;9.88;;;5.93;;
20154;SDS011;10238;49.556;10.956;2022-10-17T09:24:38;9.52;;;5.30;;
20154;SDS011;10238;49.556;10.956;2022-10-17T09:27:32;8.18;;;6.68;;
20154;SDS011;10238;49.556;10.956;2022-10-17T09:30:31;13.43;;;7.30;;
20154;SDS011;10238;49.556;10.956;2022-10-17T09:33:32;10.60;;;6.03;;
20154;SDS011;10238;49.556;10.956;2022-10-17T09:36:40;8.38;;;5.72;;
20154;SDS011;10238;49.556;10.956;2022-10-17T09:39:29;9.48;;;5.70;;
20154;SDS011;10238;49.556;10.956;2022-10-17T09:42:19;17.15;;;5.05;;
20154;SDS011;10238;49.556;10.956;2022-10-17T09:45:15;9.55;;;6.35;;
20154;SDS011;10238;49.556;10.956;2022-10-17T09:48:17;12.25;;;5.68;;
20154;SDS011;10238;49.556;10.956;2022-10-17T09:51:12;9.15;;;6.32;;
20154;SDS011;10238;49.556;10.956;2022-10-17T09:54:14;8.00;;;5.13;;
20154;SDS011;10238;49.556;10.956;2022-10-17T09:57:09;8.98;;;5.20;;
20154;SDS011;10238;49.556;10.956;2022-10-17T10:00:00;11.75;;;10.65;;
20154;SDS011;10238;49.556;10.956;2022-10-17T10:02:50;9.05;;;8.15;;
20154;SDS011;10238;49.556;10.956;2022-10-17T10:06:00;11.73;;;5.10;;
20154;SDS011;10238;49.556;10.956;2022-10-17T10:08:51;9.15;;;5.85;;
20154;SDS011;10238;49.556;10.956;2022-10-17T10:11:44;6.97;;;5.03;;
20154;SDS011;10238;49.556;10.956;2022-10-17T10:14:37;6.70;;;5.25;;
20154;SDS011;10238;49.556;10.956;2022-10-17T10:17:28;7.07;;;4.28;;
20154;SDS011;10238;49.556;10.956;2022-10-17T10:20:26;6.35;;;4.32;;
20154;SDS011;10238;49.556;10.956;2022-10-17T10:23:18;6.93;;;4.40;;
20154;SDS011;10238;49.556;10.956;2022-10-17T10:29:31;9.52;;;4.38;;
20154;SDS011;10238;49.556;10.956;2022-10-17T10:32:22;7.28;;;5.25;;
20154;SDS011;10238;49.556;10.956;2022-10-17T10:35:18;8.50;;;4.93;;
20154;SDS011;10238;49.556;10.956;2022-10-17T10:38:09;6.47;;;5.00;;
20154;SDS011;10238;49.556;10.956;2022-10-17T10:41:04;5.18;;;3.60;;
20154;SDS011;10238;49.556;10.956;2022-10-17T10:43:53;9.05;;;8.45;;
20154;SDS011;10238;49.556;10.956;2022-10-17T10:46:43;14.05;;;12.77;;
20154;SDS011;10238;49.556;10.956;2022-10-17T10:49:33;14.75;;;13.55;;
20154;SDS011;10238;49.556;10.956;2022-10-17T10:52:24;10.55;;;9.57;;
20154;SDS011;10238;49.556;10.956;2022-10-17T10:55:22;9.57;;;6.13;;
20154;SDS011;10238;49.556;10.956;2022-10-17T10:58:19;8.85;;;6.10;;
20154;SDS011;10238;49.556;10.956;2022-10-17T11:01:17;5.85;;;5.45;;
20154;SDS011;10238;49.556;10.956;2022-10-17T11:04:20;5.88;;;4.70;;
20154;SDS011;10238;49.556;10.956;2022-10-17T11:07:19;6.07;;;5.30;;
20154;SDS011;10238;49.556;10.956;2022-10-17T11:10:14;6.47;;;5.82;;
20154;SDS011;10238;49.556;10.956;2022-10-17T11:13:08;8.93;;;5.22;;
20154;SDS011;10238;49.556;10.956;2022-10-17T11:16:02;4.68;;;3.50;;
20154;SDS011;10238;49.556;10.956;2022-10-17T11:19:06;4.40;;;3.67;;
20154;SDS011;10238;49.556;10.956;2022-10-17T11:22:08;4.75;;;3.33;;
20154;SDS011;10238;49.556;10.956;2022-10-17T11:25:05;6.15;;;5.50;;
20154;SDS011;10238;49.556;10.956;2022-10-17T11:28:10;4.30;;;3.97;;
20154;SDS011;10238;49.556;10.956;2022-10-17T11:31:05;8.00;;;3.72;;
20154;SDS011;10238;49.556;10.956;2022-10-17T11:34:02;6.72;;;4.85;;
20154;SDS011;10238;49.556;10.956;2022-10-17T11:37:03;4.23;;;3.43;;
20154;SDS011;10238;49.556;10.956;2022-10-17T11:39:59;7.78;;;3.25;;
20154;SDS011;10238;49.556;10.956;2022-10-17T11:42:51;4.57;;;3.72;;
20154;SDS011;10238;49.556;10.956;2022-10-17T11:45:45;6.00;;;3.55;;
20154;SDS011;10238;49.556;10.956;2022-10-17T11:48:39;4.55;;;4.03;;
20154;SDS011;10238;49.556;10.956;2022-10-17T11:51:40;6.57;;;3.40;;
20154;SDS011;10238;49.556;10.956;2022-10-17T11:54:52;3.80;;;3.17;;
20154;SDS011;10238;49.556;10.956;2022-10-17T12:06:48;4.50;;;2.95;;
20154;SDS011;10238;49.556;10.956;2022-10-17T12:14:02;3.38;;;3.03;;
20154;SDS011;10238;49.556;10.956;2022-10-17T12:17:39;4.15;;;2.90;;
20154;SDS011;10238;49.556;10.956;2022-10-17T12:21:04;4.45;;;3.13;;
20154;SDS011;10238;49.556;10.956;2022-10-17T12:24:15;4.00;;;3.70;;
20154;SDS011;10238;49.556;10.956;2022-10-17T12:28:02;4.60;;;3.72;;
20154;SDS011;10238;49.556;10.956;2022-10-17T12:31:06;4.10;;;3.70;;
20154;SDS011;10238;49.556;10.956;2022-10-17T12:33:59;4.50;;;3.23;;
20154;SDS011;10238;49.556;10.956;2022-10-17T12:36:49;4.97;;;3.97;;
20154;SDS011;10238;49.556;10.956;2022-10-17T12:39:42;5.43;;;3.53;;
20154;SDS011;10238;49.556;10.956;2022-10-17T12:42:31;4.07;;;3.78;;
20154;SDS011;10238;49.556;10.956;2022-10-17T12:45:45;7.03;;;4.10;;
20154;SDS011;10238;49.556;10.956;2022-10-17T12:49:00;6.90;;;4.68;;
20154;SDS011;10238;49.556;10.956;2022-10-17T12:55:10;4.57;;;3.67;;
20154;SDS011;10238;49.556;10.956;2022-10-17T12:58:02;5.18;;;4.68;;
20154;SDS011;10238;49.556;10.956;2022-10-17T13:00:57;4.78;;;3.90;;
20154;SDS011;10238;49.556;10.956;2022-10-17T13:04:13;3.60;;;3.22;;
20154;SDS011;10238;49.556;10.956;2022-10-17T13:07:04;6.65;;;5.43;;
20154;SDS011;10238;49.556;10.956;2022-10-17T13:10:21;5.50;;;4.90;;
20154;SDS011;10238;49.556;10.956;2022-10-17T13:13:15;3.88;;;3.10;;
20154;SDS011;10238;49.556;10.956;2022-10-17T13:16:09;5.35;;;3.42;;
20154;SDS011;10238;49.556;10.956;2022-10-17T13:19:21;5.72;;;3.55;;
20154;SDS011;10238;49.556;10.956;2022-10-17T13:22:16;4.78;;;3.40;;
20154;SDS011;10238;49.556;10.956;2022-10-17T13:25:06;5.72;;;5.22;;
20154;SDS011;10238;49.556;10.956;2022-10-17T13:28:03;5.28;;;4.88;;
20154;SDS011;10238;49.556;10.956;2022-10-17T13:31:04;6.15;;;4.60;;
20154;SDS011;10238;49.556;10.956;2022-10-17T13:34:16;5.60;;;5.10;;
20154;SDS011;10238;49.556;10.956;2022-10-17T13:37:09;4.97;;;4.57;;
20154;SDS011;10238;49.556;10.956;2022-10-17T13:40:14;5.03;;;4.53;;
20154;SDS011;10238;49.556;10.956;2022-10-17T13:43:24;7.55;;;4.55;;
20154;SDS011;10238;49.556;10.956;2022-10-17T13:46:24;5.38;;;3.63;;
20154;SDS011;10238;49.556;10.956;2022-10-17T13:49:33;8.80;;;5.75;;
20154;SDS011;10238;49.556;10.956;2022-10-17T13:52:25;4.75;;;4.45;;
20154;SDS011;10238;49.556;10.956;2022-10-17T13:55:16;3.97;;;3.67;;
20154;SDS011;10238;49.556;10.956;2022-10-17T13:58:14;4.18;;;3.88;;
20154;SDS011;10238;49.556;10.956;2022-10-17T14:01:13;3.75;;;2.75;;
20154;SDS011;10238;49.556;10.956;2022-10-17T14:04:04;6.10;;;5.70;;
20154;SDS011;10238;49.556;10.956;2022-10-17T14:07:02;5.07;;;3.67;;
20154;SDS011;10238;49.556;10.956;2022-10-17T14:09:51;6.07;;;5.07;;
20154;SDS011;10238;49.556;10.956;2022-10-17T14:12:41;4.65;;;4.35;;
20154;SDS011;10238;49.556;10.956;2022-10-17T14:15:34;5.13;;;3.38;;
20154;SDS011;10238;49.556;10.956;2022-10-17T14:18:24;4.32;;;4.00;;
20154;SDS011;10238;49.556;10.956;2022-10-17T14:21:21;8.30;;;3.33;;
20154;SDS011;10238;49.556;10.956;2022-10-17T14:24:33;3.83;;;3.53;;
20154;SDS011;10238;49.556;10.956;2022-10-17T14:27:29;3.22;;;2.92;;
20154;SDS011;10238;49.556;10.956;2022-10-17T14:30:30;5.45;;;2.80;;
20154;SDS011;10238;49.556;10.956;2022-10-17T14:33:42;3.58;;;3.28;;
20154;SDS011;10238;49.556;10.956;2022-10-17T14:36:36;3.10;;;2.90;;
20154;SDS011;10238;49.556;10.956;2022-10-17T14:39:28;7.03;;;3.28;;
20154;SDS011;10238;49.556;10.956;2022-10-17T14:42:18;11.90;;;3.08;;
20154;SDS011;10238;49.556;10.956;2022-10-17T14:45:11;5.28;;;3.03;;
20154;SDS011;10238;49.556;10.956;2022-10-17T14:48:08;2.80;;;2.50;;
20154;SDS011;10238;49.556;10.956;2022-10-17T14:51:04;4.30;;;2.58;;
20154;SDS011;10238;49.556;10.956;2022-10-17T14:54:01;2.53;;;2.33;;
20154;SDS011;10238;49.556;10.956;2022-10-17T14:56:51;3.10;;;2.80;;
20154;SDS011;10238;49.556;10.956;2022-10-17T14:59:42;3.15;;;2.80;;
20154;SDS011;10238;49.556;10.956;2022-10-17T15:02:39;4.82;;;2.63;;
20154;SDS011;10238;49.556;10.956;2022-10-17T15:05:28;3.55;;;2.42;;
20154;SDS011;10238;49.556;10.956;2022-10-17T15:08:17;2.70;;;2.50;;
20154;SDS011;10238;49.556;10.956;2022-10-17T15:11:09;5.47;;;3.00;;
20154;SDS011;10238;49.556;10.956;2022-10-17T15:13:57;13.13;;;3.50;;
20154;SDS011;10238;49.556;10.956;2022-10-17T15:16:47;4.05;;;3.00;;
20154;SDS011;10238;49.556;10.956;2022-10-17T15:19:36;5.20;;;3.00;;
20154;SDS011;10238;49.556;10.956;2022-10-17T15:22:25;3.35;;;3.05;;
20154;SDS011;10238;49.556;10.956;2022-10-17T15:25:16;4.85;;;3.10;;
20154;SDS011;10238;49.556;10.956;2022-10-17T15:28:04;5.05;;;3.05;;
20154;SDS011;10238;49.556;10.956;2022-10-17T15:30:52;3.75;;;2.47;;
20154;SDS011;10238;49.556;10.956;2022-10-17T15:33:42;5.85;;;2.75;;
20154;SDS011;10238;49.556;10.956;2022-10-17T15:36:31;4.78;;;2.60;;
20154;SDS011;10238;49.556;10.956;2022-10-17T15:39:22;4.55;;;2.53;;
20154;SDS011;10238;49.556;10.956;2022-10-17T15:42:10;3.20;;;2.90;;
20154;SDS011;10238;49.556;10.956;2022-10-17T15:44:58;4.63;;;2.42;;
20154;SDS011;10238;49.556;10.956;2022-10-17T15:47:48;2.83;;;2.50;;
20154;SDS011;10238;49.556;10.956;2022-10-17T15:50:40;6.10;;;2.88;;
20154;SDS011;10238;49.556;10.956;2022-10-17T15:53:28;6.00;;;3.33;;
20154;SDS011;10238;49.556;10.956;2022-10-17T15:56:18;4.57;;;3.13;;
20154;SDS011;10238;49.556;10.956;2022-10-17T15:59:10;4.13;;;2.78;;
20154;SDS011;10238;49.556;10.956;2022-10-17T16:02:00;4.00;;;3.50;;
20154;SDS011;10238;49.556;10.956;2022-10-17T16:04:49;5.90;;;3.78;;
20154;SDS011;10238;49.556;10.956;2022-10-17T16:07:39;6.35;;;3.50;;
20154;SDS011;10238;49.556;10.956;2022-10-17T16:10:30;7.50;;;3.70;;
20154;SDS011;10238;49.556;10.956;2022-10-17T16:13:36;3.45;;;3.20;;
20154;SDS011;10238;49.556;10.956;2022-10-17T16:16:27;3.92;;;2.90;;
20154;SDS011;10238;49.556;10.956;2022-10-17T16:19:15;3.30;;;2.80;;
20154;SDS011;10238;49.556;10.956;2022-10-17T16:22:08;3.33;;;2.72;;
20154;SDS011;10238;49.556;10.956;2022-10-17T16:25:14;6.40;;;3.03;;
20154;SDS011;10238;49.556;10.956;2022-10-17T16:28:05;3.53;;;3.22;;
20154;SDS011;10238;49.556;10.956;2022-10-17T16:31:01;5.78;;;3.40;;
20154;SDS011;10238;49.556;10.956;2022-10-17T16:33:51;3.83;;;3.20;;
20154;SDS011;10238;49.556;10.956;2022-10-17T16:36:41;7.80;;;3.85;;
20154;SDS011;10238;49.556;10.956;2022-10-17T16:39:29;8.10;;;4.18;;
20154;SDS011;10238;49.556;10.956;2022-10-17T16:42:18;7.03;;;3.83;;
20154;SDS011;10238;49.556;10.956;2022-10-17T16:45:06;5.93;;;3.95;;
20154;SDS011;10238;49.556;10.956;2022-10-17T16:47:55;4.95;;;3.65;;
20154;SDS011;10238;49.556;10.956;2022-10-17T16:50:43;10.98;;;4.28;;
20154;SDS011;10238;49.556;10.956;2022-10-17T16:53:31;7.95;;;4.50;;
20154;SDS011;10238;49.556;10.956;2022-10-17T16:56:19;3.85;;;3.47;;
20154;SDS011;10238;49.556;10.956;2022-10-17T16:59:13;5.85;;;3.58;;
20154;SDS011;10238;49.556;10.956;2022-10-17T17:02:01;5.85;;;3.95;;
20154;SDS011;10238;49.556;10.956;2022-10-17T17:04:50;7.70;;;3.35;;
20154;SDS011;10238;49.556;10.956;2022-10-17T17:07:38;4.90;;;3.60;;
20154;SDS011;10238;49.556;10.956;2022-10-17T17:10:27;5.10;;;3.05;;
20154;SDS011;10238;49.556;10.956;2022-10-17T17:13:15;8.57;;;2.78;;
20154;SDS011;10238;49.556;10.956;2022-10-17T17:16:07;3.92;;;3.35;;
20154;SDS011;10238;49.556;10.956;2022-10-17T17:18:59;7.00;;;3.80;;
20154;SDS011;10238;49.556;10.956;2022-10-17T17:21:48;9.05;;;4.30;;
20154;SDS011;10238;49.556;10.956;2022-10-17T17:24:36;4.82;;;4.47;;
20154;SDS011;10238;49.556;10.956;2022-10-17T17:27:25;5.75;;;4.97;;
20154;SDS011;10238;49.556;10.956;2022-10-17T17:30:14;6.78;;;4.15;;
20154;SDS011;10238;49.556;10.956;2022-10-17T17:33:04;5.80;;;3.38;;
20154;SDS011;10238;49.556;10.956;2022-10-17T17:35:55;4.65;;;3.30;;